Red Desert, Wyoming
Current Conditions -  °F | °C
As of 1:53 PM on Wednesday 17 Dec 2014 (Local Time) from KRWL Reporting Station
Clear Clear  
Wind Chill: 23°   Ceiling: Unl
Heat Index: 32°   Visibility: 10mi
Dew Point: 21°   Wind: 13mph
Humidity: 64%   Direction: 230°SW
Pressure: 29.93"   Gusts: NA
Location:  41.6289°N, 108.096°W
Report Text: KRWL 172053Z AUTO 23011KT 10SM CLR 00/M06 A2993 RMK AO2 SLP152 T00001061 56011
Loading
Personal Weather Stations






























Interactive Weather Map New forecast layout! Learn more

10-Day Weather Forecast

Advertisements
Track Severe Weather on mobile